sensor_id;sensor_type;location;lat;lon;timestamp;temperature;humidity
46029;DHT22;31763;48.180;7.904;2022-09-09T00:00:56;17.50;99.90
46029;DHT22;31763;48.180;7.904;2022-09-09T00:03:53;17.60;99.90
46029;DHT22;31763;48.180;7.904;2022-09-09T00:09:47;17.50;99.90
46029;DHT22;31763;48.180;7.904;2022-09-09T00:15:14;17.40;99.90
46029;DHT22;31763;48.180;7.904;2022-09-09T00:20:57;17.50;99.90
46029;DHT22;31763;48.180;7.904;2022-09-09T00:23:37;17.40;99.90
46029;DHT22;31763;48.180;7.904;2022-09-09T00:28:44;17.20;99.90
46029;DHT22;31763;48.180;7.904;2022-09-09T00:31:32;17.30;99.90
46029;DHT22;31763;48.180;7.904;2022-09-09T00:34:19;17.30;99.90
46029;DHT22;31763;48.180;7.904;2022-09-09T00:36:50;17.20;99.90
46029;DHT22;31763;48.180;7.904;2022-09-09T00:39:40;17.30;99.90
46029;DHT22;31763;48.180;7.904;2022-09-09T00:44:55;17.30;99.90
46029;DHT22;31763;48.180;7.904;2022-09-09T00:50:12;17.40;99.90
46029;DHT22;31763;48.180;7.904;2022-09-09T00:56:26;17.40;99.90
46029;DHT22;31763;48.180;7.904;2022-09-09T01:01:37;16.90;99.90
46029;DHT22;31763;48.180;7.904;2022-09-09T01:04:12;16.80;99.90
46029;DHT22;31763;48.180;7.904;2022-09-09T01:06:43;16.90;99.90
46029;DHT22;31763;48.180;7.904;2022-09-09T01:09:26;16.70;99.90
46029;DHT22;31763;48.180;7.904;2022-09-09T01:12:15;16.70;99.90
46029;DHT22;31763;48.180;7.904;2022-09-09T01:14:47;16.90;99.90
46029;DHT22;31763;48.180;7.904;2022-09-09T01:17:31;16.90;99.90
46029;DHT22;31763;48.180;7.904;2022-09-09T01:20:12;16.80;99.90
46029;DHT22;31763;48.180;7.904;2022-09-09T01:28:54;16.50;99.90
46029;DHT22;31763;48.180;7.904;2022-09-09T01:31:31;16.60;99.90
46029;DHT22;31763;48.180;7.904;2022-09-09T01:34:01;16.60;99.90
46029;DHT22;31763;48.180;7.904;2022-09-09T01:36:59;16.70;99.90
46029;DHT22;31763;48.180;7.904;2022-09-09T01:39:47;16.60;99.90
46029;DHT22;31763;48.180;7.904;2022-09-09T01:42:25;16.80;99.90
46029;DHT22;31763;48.180;7.904;2022-09-09T01:44:59;16.80;99.90
46029;DHT22;31763;48.180;7.904;2022-09-09T01:47:30;16.60;99.90
46029;DHT22;31763;48.180;7.904;2022-09-09T01:49:59;16.70;99.90
46029;DHT22;31763;48.180;7.904;2022-09-09T01:52:31;16.70;99.90
46029;DHT22;31763;48.180;7.904;2022-09-09T01:55:04;16.70;99.90
46029;DHT22;31763;48.180;7.904;2022-09-09T01:57:48;16.70;99.90
46029;DHT22;31763;48.180;7.904;2022-09-09T02:00:23;16.70;99.90
46029;DHT22;31763;48.180;7.904;2022-09-09T02:03:11;16.70;99.90
46029;DHT22;31763;48.180;7.904;2022-09-09T02:06:22;16.70;99.90
46029;DHT22;31763;48.180;7.904;2022-09-09T02:08:59;16.60;99.90
46029;DHT22;31763;48.180;7.904;2022-09-09T02:11:29;16.60;99.90
46029;DHT22;31763;48.180;7.904;2022-09-09T02:14:03;16.60;99.90
46029;DHT22;31763;48.180;7.904;2022-09-09T02:16:42;16.20;99.90
46029;DHT22;31763;48.180;7.904;2022-09-09T02:19:16;16.00;99.90
46029;DHT22;31763;48.180;7.904;2022-09-09T02:21:55;15.80;99.90
46029;DHT22;31763;48.180;7.904;2022-09-09T02:24:22;15.70;99.90
46029;DHT22;31763;48.180;7.904;2022-09-09T02:26:52;15.70;99.90
46029;DHT22;31763;48.180;7.904;2022-09-09T02:29:30;15.60;99.90
46029;DHT22;31763;48.180;7.904;2022-09-09T02:32:04;15.70;99.90
46029;DHT22;31763;48.180;7.904;2022-09-09T02:34:44;15.60;99.90
46029;DHT22;31763;48.180;7.904;2022-09-09T02:37:24;15.60;99.90
46029;DHT22;31763;48.180;7.904;2022-09-09T02:40:00;15.80;99.90
46029;DHT22;31763;48.180;7.904;2022-09-09T02:42:31;15.80;99.90
46029;DHT22;31763;48.180;7.904;2022-09-09T02:45:09;15.50;99.90
46029;DHT22;31763;48.180;7.904;2022-09-09T02:47:53;15.50;99.90
46029;DHT22;31763;48.180;7.904;2022-09-09T02:51:18;15.40;99.90
46029;DHT22;31763;48.180;7.904;2022-09-09T02:57:31;15.40;99.90
46029;DHT22;31763;48.180;7.904;2022-09-09T02:59:59;15.60;99.90
46029;DHT22;31763;48.180;7.904;2022-09-09T03:02:27;15.60;99.90
46029;DHT22;31763;48.180;7.904;2022-09-09T03:04:54;15.50;99.90
46029;DHT22;31763;48.180;7.904;2022-09-09T03:07:21;15.30;99.90
46029;DHT22;31763;48.180;7.904;2022-09-09T03:09:48;15.30;99.90
46029;DHT22;31763;48.180;7.904;2022-09-09T03:12:15;15.10;99.90
46029;DHT22;31763;48.180;7.904;2022-09-09T03:14:42;15.10;99.90
46029;DHT22;31763;48.180;7.904;2022-09-09T03:17:11;15.20;99.90
46029;DHT22;31763;48.180;7.904;2022-09-09T03:19:38;15.30;99.90
46029;DHT22;31763;48.180;7.904;2022-09-09T03:22:05;15.50;99.90
46029;DHT22;31763;48.180;7.904;2022-09-09T03:24:32;15.60;99.90
46029;DHT22;31763;48.180;7.904;2022-09-09T03:26:59;15.70;99.90
46029;DHT22;31763;48.180;7.904;2022-09-09T03:29:25;15.80;99.90
46029;DHT22;31763;48.180;7.904;2022-09-09T03:31:52;15.80;99.90
46029;DHT22;31763;48.180;7.904;2022-09-09T03:34:19;15.80;99.90
46029;DHT22;31763;48.180;7.904;2022-09-09T03:36:46;15.50;99.90
46029;DHT22;31763;48.180;7.904;2022-09-09T03:39:15;15.40;99.90
46029;DHT22;31763;48.180;7.904;2022-09-09T03:41:41;15.60;99.90
46029;DHT22;31763;48.180;7.904;2022-09-09T03:44:08;15.70;99.90
46029;DHT22;31763;48.180;7.904;2022-09-09T03:46:35;15.50;99.90
46029;DHT22;31763;48.180;7.904;2022-09-09T03:49:02;15.40;99.90
46029;DHT22;31763;48.180;7.904;2022-09-09T03:51:28;15.30;99.90
46029;DHT22;31763;48.180;7.904;2022-09-09T03:53:55;15.40;99.90
46029;DHT22;31763;48.180;7.904;2022-09-09T03:56:24;15.30;99.90
46029;DHT22;31763;48.180;7.904;2022-09-09T03:58:51;15.20;99.90
46029;DHT22;31763;48.180;7.904;2022-09-09T04:01:18;15.10;99.90
46029;DHT22;31763;48.180;7.904;2022-09-09T04:03:45;15.10;99.90
46029;DHT22;31763;48.180;7.904;2022-09-09T04:06:12;15.10;99.90
46029;DHT22;31763;48.180;7.904;2022-09-09T04:08:41;15.10;99.90
46029;DHT22;31763;48.180;7.904;2022-09-09T04:11:08;15.20;99.90
46029;DHT22;31763;48.180;7.904;2022-09-09T04:13:36;15.10;99.90
46029;DHT22;31763;48.180;7.904;2022-09-09T04:16:05;15.00;99.90
46029;DHT22;31763;48.180;7.904;2022-09-09T04:18:33;15.10;99.90
46029;DHT22;31763;48.180;7.904;2022-09-09T04:21:01;15.00;99.90
46029;DHT22;31763;48.180;7.904;2022-09-09T04:23:28;14.90;99.90
46029;DHT22;31763;48.180;7.904;2022-09-09T04:25:57;14.90;99.90
46029;DHT22;31763;48.180;7.904;2022-09-09T04:28:30;14.90;99.90
46029;DHT22;31763;48.180;7.904;2022-09-09T04:31:19;15.00;99.90
46029;DHT22;31763;48.180;7.904;2022-09-09T04:33:49;15.10;99.90
46029;DHT22;31763;48.180;7.904;2022-09-09T04:36:17;15.10;99.90
46029;DHT22;31763;48.180;7.904;2022-09-09T04:38:46;15.00;99.90
46029;DHT22;31763;48.180;7.904;2022-09-09T04:41:14;15.10;99.90
46029;DHT22;31763;48.180;7.904;2022-09-09T04:43:43;15.10;99.90
46029;DHT22;31763;48.180;7.904;2022-09-09T04:46:09;15.10;99.90
46029;DHT22;31763;48.180;7.904;2022-09-09T04:48:37;15.20;99.90
46029;DHT22;31763;48.180;7.904;2022-09-09T04:51:05;15.20;99.90
46029;DHT22;31763;48.180;7.904;2022-09-09T04:53:34;15.10;99.90
46029;DHT22;31763;48.180;7.904;2022-09-09T04:56:21;15.20;99.90
46029;DHT22;31763;48.180;7.904;2022-09-09T04:58:48;15.20;99.90
46029;DHT22;31763;48.180;7.904;2022-09-09T05:01:18;15.10;99.90
46029;DHT22;31763;48.180;7.904;2022-09-09T05:03:46;15.10;99.90
46029;DHT22;31763;48.180;7.904;2022-09-09T05:06:15;15.00;99.90
46029;DHT22;31763;48.180;7.904;2022-09-09T05:08:44;15.10;99.90
46029;DHT22;31763;48.180;7.904;2022-09-09T05:11:20;15.10;99.90
46029;DHT22;31763;48.180;7.904;2022-09-09T05:13:48;15.00;99.90
46029;DHT22;31763;48.180;7.904;2022-09-09T05:16:17;15.10;99.90
46029;DHT22;31763;48.180;7.904;2022-09-09T05:18:45;15.10;99.90
46029;DHT22;31763;48.180;7.904;2022-09-09T05:21:17;15.10;99.90
46029;DHT22;31763;48.180;7.904;2022-09-09T05:23:45;15.10;99.90
46029;DHT22;31763;48.180;7.904;2022-09-09T05:26:14;15.10;99.90
46029;DHT22;31763;48.180;7.904;2022-09-09T05:28:44;15.10;99.90
46029;DHT22;31763;48.180;7.904;2022-09-09T05:31:12;15.10;99.90
46029;DHT22;31763;48.180;7.904;2022-09-09T05:33:42;15.20;99.90
46029;DHT22;31763;48.180;7.904;2022-09-09T05:36:18;15.10;99.90
46029;DHT22;31763;48.180;7.904;2022-09-09T05:38:47;15.10;99.90
46029;DHT22;31763;48.180;7.904;2022-09-09T05:41:14;15.10;99.90
46029;DHT22;31763;48.180;7.904;2022-09-09T05:43:44;15.20;99.90
46029;DHT22;31763;48.180;7.904;2022-09-09T05:46:18;15.20;99.90
46029;DHT22;31763;48.180;7.904;2022-09-09T05:48:47;15.20;99.90
46029;DHT22;31763;48.180;7.904;2022-09-09T05:51:21;15.10;99.90
46029;DHT22;31763;48.180;7.904;2022-09-09T05:53:54;15.20;99.90
46029;DHT22;31763;48.180;7.904;2022-09-09T05:56:23;15.20;99.90
46029;DHT22;31763;48.180;7.904;2022-09-09T05:58:55;15.20;99.90
46029;DHT22;31763;48.180;7.904;2022-09-09T06:01:27;15.20;99.90
46029;DHT22;31763;48.180;7.904;2022-09-09T06:03:55;15.20;99.90
46029;DHT22;31763;48.180;7.904;2022-09-09T06:06:24;15.20;99.90
46029;DHT22;31763;48.180;7.904;2022-09-09T06:08:54;15.30;99.90
46029;DHT22;31763;48.180;7.904;2022-09-09T06:11:26;15.30;99.90
46029;DHT22;31763;48.180;7.904;2022-09-09T06:13:55;15.30;99.90
46029;DHT22;31763;48.180;7.904;2022-09-09T06:16:25;15.40;99.90
46029;DHT22;31763;48.180;7.904;2022-09-09T06:18:54;15.40;99.90
46029;DHT22;31763;48.180;7.904;2022-09-09T06:21:31;15.40;99.90
46029;DHT22;31763;48.180;7.904;2022-09-09T06:24:03;15.40;99.90
46029;DHT22;31763;48.180;7.904;2022-09-09T06:26:32;15.40;99.90
46029;DHT22;31763;48.180;7.904;2022-09-09T06:29:01;15.40;99.90
46029;DHT22;31763;48.180;7.904;2022-09-09T06:31:31;15.40;99.90
46029;DHT22;31763;48.180;7.904;2022-09-09T06:34:01;15.40;99.90
46029;DHT22;31763;48.180;7.904;2022-09-09T06:36:30;15.40;99.90
46029;DHT22;31763;48.180;7.904;2022-09-09T06:38:59;15.40;99.90
46029;DHT22;31763;48.180;7.904;2022-09-09T06:41:28;15.40;99.90
46029;DHT22;31763;48.180;7.904;2022-09-09T06:43:56;15.30;99.90
46029;DHT22;31763;48.180;7.904;2022-09-09T06:46:25;15.30;99.90
46029;DHT22;31763;48.180;7.904;2022-09-09T06:48:57;15.30;99.90
46029;DHT22;31763;48.180;7.904;2022-09-09T06:51:31;15.30;99.90
46029;DHT22;31763;48.180;7.904;2022-09-09T06:54:00;15.30;99.90
46029;DHT22;31763;48.180;7.904;2022-09-09T06:56:32;15.30;99.90
46029;DHT22;31763;48.180;7.904;2022-09-09T06:59:02;15.30;99.90
46029;DHT22;31763;48.180;7.904;2022-09-09T07:01:38;15.30;99.90
46029;DHT22;31763;48.180;7.904;2022-09-09T07:04:21;15.40;99.90
46029;DHT22;31763;48.180;7.904;2022-09-09T07:06:47;15.80;99.90
46029;DHT22;31763;48.180;7.904;2022-09-09T07:09:15;15.80;99.90
46029;DHT22;31763;48.180;7.904;2022-09-09T07:11:45;15.90;99.90
46029;DHT22;31763;48.180;7.904;2022-09-09T07:14:13;16.10;99.90
46029;DHT22;31763;48.180;7.904;2022-09-09T07:16:41;15.90;99.90
46029;DHT22;31763;48.180;7.904;2022-09-09T07:19:09;16.00;99.90
46029;DHT22;31763;48.180;7.904;2022-09-09T07:21:37;16.00;99.90
46029;DHT22;31763;48.180;7.904;2022-09-09T07:24:04;16.10;99.90
46029;DHT22;31763;48.180;7.904;2022-09-09T07:26:33;16.00;99.90
46029;DHT22;31763;48.180;7.904;2022-09-09T07:29:00;16.00;99.90
46029;DHT22;31763;48.180;7.904;2022-09-09T07:31:32;16.10;99.90
46029;DHT22;31763;48.180;7.904;2022-09-09T07:34:03;16.20;99.90
46029;DHT22;31763;48.180;7.904;2022-09-09T07:36:31;16.10;99.90
46029;DHT22;31763;48.180;7.904;2022-09-09T07:39:02;16.00;99.90
46029;DHT22;31763;48.180;7.904;2022-09-09T07:41:45;16.10;99.90
46029;DHT22;31763;48.180;7.904;2022-09-09T07:44:18;16.20;99.90
46029;DHT22;31763;48.180;7.904;2022-09-09T07:46:47;16.00;99.90
46029;DHT22;31763;48.180;7.904;2022-09-09T07:49:14;16.00;99.90
46029;DHT22;31763;48.180;7.904;2022-09-09T07:51:44;16.10;99.90
46029;DHT22;31763;48.180;7.904;2022-09-09T07:54:14;16.40;99.90
46029;DHT22;31763;48.180;7.904;2022-09-09T07:56:42;16.60;99.90
46029;DHT22;31763;48.180;7.904;2022-09-09T07:59:09;16.90;99.90
46029;DHT22;31763;48.180;7.904;2022-09-09T08:01:45;17.00;99.90
46029;DHT22;31763;48.180;7.904;2022-09-09T08:04:16;16.80;99.90
46029;DHT22;31763;48.180;7.904;2022-09-09T08:06:49;17.10;99.90
46029;DHT22;31763;48.180;7.904;2022-09-09T08:09:19;17.20;99.90
46029;DHT22;31763;48.180;7.904;2022-09-09T08:11:47;17.40;99.90
46029;DHT22;31763;48.180;7.904;2022-09-09T08:14:14;17.00;99.90
46029;DHT22;31763;48.180;7.904;2022-09-09T08:16:43;16.70;99.90
46029;DHT22;31763;48.180;7.904;2022-09-09T08:19:12;16.70;99.90
46029;DHT22;31763;48.180;7.904;2022-09-09T08:21:39;16.60;99.90
46029;DHT22;31763;48.180;7.904;2022-09-09T08:24:09;16.40;99.90
46029;DHT22;31763;48.180;7.904;2022-09-09T08:26:44;16.40;99.90
46029;DHT22;31763;48.180;7.904;2022-09-09T08:29:12;16.40;99.90
46029;DHT22;31763;48.180;7.904;2022-09-09T08:31:43;16.50;99.90
46029;DHT22;31763;48.180;7.904;2022-09-09T08:34:11;16.80;99.90
46029;DHT22;31763;48.180;7.904;2022-09-09T08:36:43;17.00;99.90
46029;DHT22;31763;48.180;7.904;2022-09-09T08:39:13;17.30;99.90
46029;DHT22;31763;48.180;7.904;2022-09-09T08:44:37;17.30;99.90
46029;DHT22;31763;48.180;7.904;2022-09-09T08:50:34;17.50;99.90
46029;DHT22;31763;48.180;7.904;2022-09-09T08:53:28;17.50;99.90
46029;DHT22;31763;48.180;7.904;2022-09-09T08:56:02;17.60;99.90
46029;DHT22;31763;48.180;7.904;2022-09-09T08:58:35;17.70;99.90
46029;DHT22;31763;48.180;7.904;2022-09-09T09:04:13;17.90;99.90
46029;DHT22;31763;48.180;7.904;2022-09-09T09:07:10;17.90;99.90
46029;DHT22;31763;48.180;7.904;2022-09-09T09:10:10;18.40;99.90
46029;DHT22;31763;48.180;7.904;2022-09-09T09:13:03;18.30;99.90
46029;DHT22;31763;48.180;7.904;2022-09-09T09:15:35;18.40;99.90
46029;DHT22;31763;48.180;7.904;2022-09-09T09:18:05;18.20;99.90
46029;DHT22;31763;48.180;7.904;2022-09-09T09:21:02;17.80;99.90
46029;DHT22;31763;48.180;7.904;2022-09-09T09:23:59;17.90;99.90
46029;DHT22;31763;48.180;7.904;2022-09-09T09:26:34;17.80;99.90
46029;DHT22;31763;48.180;7.904;2022-09-09T09:29:11;17.70;99.90
46029;DHT22;31763;48.180;7.904;2022-09-09T09:31:52;17.60;99.90
46029;DHT22;31763;48.180;7.904;2022-09-09T09:34:26;17.60;99.90
46029;DHT22;31763;48.180;7.904;2022-09-09T09:37:00;17.70;99.90
46029;DHT22;31763;48.180;7.904;2022-09-09T09:39:44;17.90;99.90
46029;DHT22;31763;48.180;7.904;2022-09-09T09:42:30;17.80;99.90
46029;DHT22;31763;48.180;7.904;2022-09-09T09:45:33;17.60;99.90
46029;DHT22;31763;48.180;7.904;2022-09-09T09:48:33;17.60;99.90
46029;DHT22;31763;48.180;7.904;2022-09-09T09:51:13;17.50;99.90
46029;DHT22;31763;48.180;7.904;2022-09-09T09:53:53;17.50;99.90
46029;DHT22;31763;48.180;7.904;2022-09-09T09:56:31;17.60;99.90
46029;DHT22;31763;48.180;7.904;2022-09-09T09:59:37;17.60;99.90
46029;DHT22;31763;48.180;7.904;2022-09-09T10:04:47;17.90;99.90
46029;DHT22;31763;48.180;7.904;2022-09-09T10:07:21;17.90;99.90
46029;DHT22;31763;48.180;7.904;2022-09-09T10:10:01;17.70;99.90
46029;DHT22;31763;48.180;7.904;2022-09-09T10:16:24;17.80;99.90
46029;DHT22;31763;48.180;7.904;2022-09-09T10:19:17;17.90;99.90
46029;DHT22;31763;48.180;7.904;2022-09-09T10:25:29;18.00;99.90
46029;DHT22;31763;48.180;7.904;2022-09-09T10:31:45;17.80;99.90
46029;DHT22;31763;48.180;7.904;2022-09-09T10:37:05;17.90;99.90
46029;DHT22;31763;48.180;7.904;2022-09-09T10:39:43;17.90;99.90
46029;DHT22;31763;48.180;7.904;2022-09-09T10:42:13;17.80;99.90
46029;DHT22;31763;48.180;7.904;2022-09-09T10:44:47;16.90;99.90
46029;DHT22;31763;48.180;7.904;2022-09-09T10:48:31;16.30;99.90
46029;DHT22;31763;48.180;7.904;2022-09-09T10:50:52;16.00;99.90
46029;DHT22;31763;48.180;7.904;2022-09-09T10:53:35;16.10;99.90
46029;DHT22;31763;48.180;7.904;2022-09-09T10:56:09;16.40;99.90
46029;DHT22;31763;48.180;7.904;2022-09-09T10:58:44;17.00;99.90
46029;DHT22;31763;48.180;7.904;2022-09-09T11:01:57;17.30;99.90
46029;DHT22;31763;48.180;7.904;2022-09-09T11:04:38;17.80;99.90
46029;DHT22;31763;48.180;7.904;2022-09-09T11:07:11;18.00;99.90
46029;DHT22;31763;48.180;7.904;2022-09-09T11:09:45;17.90;99.90
46029;DHT22;31763;48.180;7.904;2022-09-09T11:12:19;17.80;99.90
46029;DHT22;31763;48.180;7.904;2022-09-09T11:14:59;17.40;99.90
46029;DHT22;31763;48.180;7.904;2022-09-09T11:17:52;17.10;99.90
46029;DHT22;31763;48.180;7.904;2022-09-09T11:20:21;17.20;99.90
46029;DHT22;31763;48.180;7.904;2022-09-09T11:23:09;17.20;99.90
46029;DHT22;31763;48.180;7.904;2022-09-09T11:25:43;17.00;99.90
46029;DHT22;31763;48.180;7.904;2022-09-09T11:34:13;16.70;99.90
46029;DHT22;31763;48.180;7.904;2022-09-09T11:40:20;16.80;99.90
46029;DHT22;31763;48.180;7.904;2022-09-09T11:42:49;16.70;99.90
46029;DHT22;31763;48.180;7.904;2022-09-09T11:45:28;16.90;99.90
46029;DHT22;31763;48.180;7.904;2022-09-09T11:51:35;17.00;99.90
46029;DHT22;31763;48.180;7.904;2022-09-09T11:58:23;17.30;99.90
46029;DHT22;31763;48.180;7.904;2022-09-09T12:05:22;17.30;99.90
46029;DHT22;31763;48.180;7.904;2022-09-09T12:11:29;18.20;99.90
46029;DHT22;31763;48.180;7.904;2022-09-09T12:17:57;18.50;99.90
46029;DHT22;31763;48.180;7.904;2022-09-09T12:21:14;18.10;99.90
46029;DHT22;31763;48.180;7.904;2022-09-09T12:24:15;18.10;99.90
46029;DHT22;31763;48.180;7.904;2022-09-09T12:27:14;18.00;99.90
46029;DHT22;31763;48.180;7.904;2022-09-09T12:32:23;17.90;99.90
46029;DHT22;31763;48.180;7.904;2022-09-09T12:35:10;17.90;99.90
46029;DHT22;31763;48.180;7.904;2022-09-09T12:37:49;18.10;99.90
46029;DHT22;31763;48.180;7.904;2022-09-09T12:42:51;18.10;99.90
46029;DHT22;31763;48.180;7.904;2022-09-09T12:45:23;18.50;99.90
46029;DHT22;31763;48.180;7.904;2022-09-09T12:48:09;19.20;99.90
46029;DHT22;31763;48.180;7.904;2022-09-09T12:50:46;19.90;99.90
46029;DHT22;31763;48.180;7.904;2022-09-09T12:53:38;20.10;99.90
46029;DHT22;31763;48.180;7.904;2022-09-09T12:56:08;19.90;99.90
46029;DHT22;31763;48.180;7.904;2022-09-09T12:58:37;20.00;99.90
46029;DHT22;31763;48.180;7.904;2022-09-09T13:01:05;19.40;99.90
46029;DHT22;31763;48.180;7.904;2022-09-09T13:03:33;19.20;99.90
46029;DHT22;31763;48.180;7.904;2022-09-09T13:06:27;19.40;99.90
46029;DHT22;31763;48.180;7.904;2022-09-09T13:08:57;19.20;99.90
46029;DHT22;31763;48.180;7.904;2022-09-09T13:11:31;18.80;99.90
46029;DHT22;31763;48.180;7.904;2022-09-09T13:14:02;18.50;99.90
46029;DHT22;31763;48.180;7.904;2022-09-09T13:16:31;18.30;99.90
46029;DHT22;31763;48.180;7.904;2022-09-09T13:19:09;18.20;99.90
46029;DHT22;31763;48.180;7.904;2022-09-09T13:21:40;18.40;99.90
46029;DHT22;31763;48.180;7.904;2022-09-09T13:24:30;18.90;99.90
46029;DHT22;31763;48.180;7.904;2022-09-09T13:26:59;19.80;99.90
46029;DHT22;31763;48.180;7.904;2022-09-09T13:29:29;19.50;99.90
46029;DHT22;31763;48.180;7.904;2022-09-09T13:32:16;19.20;99.90
46029;DHT22;31763;48.180;7.904;2022-09-09T13:34:58;18.90;99.90
46029;DHT22;31763;48.180;7.904;2022-09-09T13:37:35;18.50;99.90
46029;DHT22;31763;48.180;7.904;2022-09-09T13:40:04;18.70;99.90
46029;DHT22;31763;48.180;7.904;2022-09-09T13:42:36;18.60;99.90
46029;DHT22;31763;48.180;7.904;2022-09-09T13:45:06;18.50;99.90
46029;DHT22;31763;48.180;7.904;2022-09-09T13:47:47;18.70;99.90
46029;DHT22;31763;48.180;7.904;2022-09-09T13:50:22;18.70;99.90
46029;DHT22;31763;48.180;7.904;2022-09-09T13:52:51;18.70;99.90
46029;DHT22;31763;48.180;7.904;2022-09-09T13:55:22;18.50;99.90
46029;DHT22;31763;48.180;7.904;2022-09-09T13:58:03;18.30;99.90
46029;DHT22;31763;48.180;7.904;2022-09-09T14:00:33;18.00;99.90
46029;DHT22;31763;48.180;7.904;2022-09-09T14:03:00;17.90;99.90
46029;DHT22;31763;48.180;7.904;2022-09-09T14:05:30;17.80;99.90
46029;DHT22;31763;48.180;7.904;2022-09-09T14:07:58;17.70;99.90
46029;DHT22;31763;48.180;7.904;2022-09-09T14:10:26;17.70;99.90
46029;DHT22;31763;48.180;7.904;2022-09-09T14:12:53;17.60;99.90
46029;DHT22;31763;48.180;7.904;2022-09-09T14:15:20;17.80;99.90
46029;DHT22;31763;48.180;7.904;2022-09-09T14:17:48;18.70;99.90
46029;DHT22;31763;48.180;7.904;2022-09-09T14:20:15;19.50;99.90
46029;DHT22;31763;48.180;7.904;2022-09-09T14:22:43;19.70;99.90
46029;DHT22;31763;48.180;7.904;2022-09-09T14:25:11;19.90;99.90
46029;DHT22;31763;48.180;7.904;2022-09-09T14:27:40;19.50;99.90
46029;DHT22;31763;48.180;7.904;2022-09-09T14:30:07;19.50;99.90
46029;DHT22;31763;48.180;7.904;2022-09-09T14:32:35;19.30;99.90
46029;DHT22;31763;48.180;7.904;2022-09-09T14:35:02;19.30;99.90
46029;DHT22;31763;48.180;7.904;2022-09-09T14:37:30;19.10;99.90
46029;DHT22;31763;48.180;7.904;2022-09-09T14:39:57;19.00;99.90
46029;DHT22;31763;48.180;7.904;2022-09-09T14:42:25;18.70;99.90
46029;DHT22;31763;48.180;7.904;2022-09-09T14:44:53;18.80;99.90
46029;DHT22;31763;48.180;7.904;2022-09-09T14:47:19;18.30;99.90
46029;DHT22;31763;48.180;7.904;2022-09-09T14:49:46;17.90;99.90
46029;DHT22;31763;48.180;7.904;2022-09-09T14:52:16;18.20;99.90
46029;DHT22;31763;48.180;7.904;2022-09-09T14:54:43;17.90;99.90
46029;DHT22;31763;48.180;7.904;2022-09-09T14:57:09;17.80;99.90
46029;DHT22;31763;48.180;7.904;2022-09-09T14:59:36;17.90;99.90
46029;DHT22;31763;48.180;7.904;2022-09-09T15:02:03;18.20;99.90
46029;DHT22;31763;48.180;7.904;2022-09-09T15:04:31;18.30;99.90
46029;DHT22;31763;48.180;7.904;2022-09-09T15:06:58;18.20;99.90
46029;DHT22;31763;48.180;7.904;2022-09-09T15:09:25;18.10;99.90
46029;DHT22;31763;48.180;7.904;2022-09-09T15:11:52;18.00;99.90
46029;DHT22;31763;48.180;7.904;2022-09-09T15:14:18;18.00;99.90
46029;DHT22;31763;48.180;7.904;2022-09-09T15:16:50;18.10;99.90
46029;DHT22;31763;48.180;7.904;2022-09-09T15:19:17;18.10;99.90
46029;DHT22;31763;48.180;7.904;2022-09-09T15:21:44;17.90;99.90
46029;DHT22;31763;48.180;7.904;2022-09-09T15:24:11;17.80;99.90
46029;DHT22;31763;48.180;7.904;2022-09-09T15:26:39;17.60;99.90
46029;DHT22;31763;48.180;7.904;2022-09-09T15:29:06;17.60;99.90
46029;DHT22;31763;48.180;7.904;2022-09-09T15:31:35;17.70;99.90
46029;DHT22;31763;48.180;7.904;2022-09-09T15:34:04;17.70;99.90
46029;DHT22;31763;48.180;7.904;2022-09-09T15:36:39;17.70;99.90
46029;DHT22;31763;48.180;7.904;2022-09-09T15:39:12;17.60;99.90
46029;DHT22;31763;48.180;7.904;2022-09-09T15:41:46;17.50;99.90
46029;DHT22;31763;48.180;7.904;2022-09-09T15:44:14;17.40;99.90
46029;DHT22;31763;48.180;7.904;2022-09-09T15:46:44;17.50;99.90
46029;DHT22;31763;48.180;7.904;2022-09-09T15:49:24;17.90;99.90
46029;DHT22;31763;48.180;7.904;2022-09-09T15:51:54;18.80;99.90
46029;DHT22;31763;48.180;7.904;2022-09-09T15:54:25;19.40;99.90
46029;DHT22;31763;48.180;7.904;2022-09-09T15:56:57;18.90;99.90
46029;DHT22;31763;48.180;7.904;2022-09-09T15:59:28;18.30;99.90
46029;DHT22;31763;48.180;7.904;2022-09-09T16:01:56;18.00;99.90
46029;DHT22;31763;48.180;7.904;2022-09-09T16:04:24;17.80;99.90
46029;DHT22;31763;48.180;7.904;2022-09-09T16:06:55;17.70;99.90
46029;DHT22;31763;48.180;7.904;2022-09-09T16:09:26;17.70;99.90
46029;DHT22;31763;48.180;7.904;2022-09-09T16:11:56;17.70;99.90
46029;DHT22;31763;48.180;7.904;2022-09-09T16:14:25;17.70;99.90
46029;DHT22;31763;48.180;7.904;2022-09-09T16:16:52;17.70;99.90
46029;DHT22;31763;48.180;7.904;2022-09-09T16:19:20;17.60;99.90
46029;DHT22;31763;48.180;7.904;2022-09-09T16:21:48;17.60;99.90
46029;DHT22;31763;48.180;7.904;2022-09-09T16:24:17;17.60;99.90
46029;DHT22;31763;48.180;7.904;2022-09-09T16:26:47;17.60;99.90
46029;DHT22;31763;48.180;7.904;2022-09-09T16:29:16;17.60;99.90
46029;DHT22;31763;48.180;7.904;2022-09-09T16:31:45;17.60;99.90
46029;DHT22;31763;48.180;7.904;2022-09-09T16:34:14;17.60;99.90
46029;DHT22;31763;48.180;7.904;2022-09-09T16:36:42;17.30;99.90
46029;DHT22;31763;48.180;7.904;2022-09-09T16:39:12;17.10;99.90
46029;DHT22;31763;48.180;7.904;2022-09-09T16:41:41;17.00;99.90
46029;DHT22;31763;48.180;7.904;2022-09-09T16:44:10;16.80;99.90
46029;DHT22;31763;48.180;7.904;2022-09-09T16:46:40;16.70;99.90
46029;DHT22;31763;48.180;7.904;2022-09-09T16:49:13;16.40;99.90
46029;DHT22;31763;48.180;7.904;2022-09-09T16:51:45;16.30;99.90
46029;DHT22;31763;48.180;7.904;2022-09-09T16:58:04;16.40;99.90
46029;DHT22;31763;48.180;7.904;2022-09-09T17:00:42;16.40;99.90
46029;DHT22;31763;48.180;7.904;2022-09-09T17:03:12;16.10;99.90
46029;DHT22;31763;48.180;7.904;2022-09-09T17:05:40;16.40;99.90
46029;DHT22;31763;48.180;7.904;2022-09-09T17:08:07;16.40;99.90
46029;DHT22;31763;48.180;7.904;2022-09-09T17:10:40;16.40;99.90
46029;DHT22;31763;48.180;7.904;2022-09-09T17:13:08;16.10;99.90
46029;DHT22;31763;48.180;7.904;2022-09-09T17:15:42;16.20;99.90
46029;DHT22;31763;48.180;7.904;2022-09-09T17:18:10;16.20;99.90
46029;DHT22;31763;48.180;7.904;2022-09-09T17:20:39;16.10;99.90
46029;DHT22;31763;48.180;7.904;2022-09-09T17:23:12;16.00;99.90
46029;DHT22;31763;48.180;7.904;2022-09-09T17:25:42;15.90;99.90
46029;DHT22;31763;48.180;7.904;2022-09-09T17:28:09;15.70;99.90
46029;DHT22;31763;48.180;7.904;2022-09-09T17:30:36;15.80;99.90
46029;DHT22;31763;48.180;7.904;2022-09-09T17:33:04;15.90;99.90
46029;DHT22;31763;48.180;7.904;2022-09-09T17:35:31;15.90;99.90
46029;DHT22;31763;48.180;7.904;2022-09-09T17:37:58;15.90;99.90
46029;DHT22;31763;48.180;7.904;2022-09-09T17:40:25;15.80;99.90
46029;DHT22;31763;48.180;7.904;2022-09-09T17:42:51;15.80;99.90
46029;DHT22;31763;48.180;7.904;2022-09-09T17:45:18;15.80;99.90